createdAt,value
2022-10-05T00:00:19.724Z,100.00
2022-10-05T00:02:48.172Z,100.00
2022-10-05T00:05:27.154Z,100.00
2022-10-05T00:07:57.453Z,100.00
2022-10-05T00:10:24.480Z,100.00
2022-10-05T00:12:51.462Z,100.00
2022-10-05T00:15:20.966Z,100.00
2022-10-05T00:17:48.050Z,100.00
2022-10-05T00:20:19.349Z,100.00
2022-10-05T00:22:47.095Z,100.00
2022-10-05T00:25:19.343Z,100.00
2022-10-05T00:27:56.973Z,100.00
2022-10-05T00:30:26.488Z,100.00
2022-10-05T00:32:58.699Z,100.00
2022-10-05T00:35:29.285Z,100.00
2022-10-05T00:37:57.075Z,100.00
2022-10-05T00:40:46.165Z,100.00
2022-10-05T00:43:35.141Z,100.00
2022-10-05T00:46:12.154Z,100.00
2022-10-05T00:48:52.369Z,100.00
2022-10-05T00:51:30.585Z,100.00
2022-10-05T00:54:05.920Z,100.00
2022-10-05T00:56:51.057Z,100.00
2022-10-05T00:59:33.800Z,100.00
2022-10-05T01:02:11.482Z,100.00
2022-10-05T01:04:54.733Z,100.00
2022-10-05T01:07:46.747Z,100.00
2022-10-05T01:10:26.830Z,100.00
2022-10-05T01:12:56.426Z,100.00
2022-10-05T01:15:36.552Z,100.00
2022-10-05T01:18:18.499Z,100.00
2022-10-05T01:21:14.036Z,100.00
2022-10-05T01:23:57.021Z,100.00
2022-10-05T01:26:36.306Z,100.00
2022-10-05T01:29:30.978Z,100.00
2022-10-05T01:32:20.437Z,100.00
2022-10-05T01:34:53.350Z,100.00
2022-10-05T01:37:32.506Z,100.00
2022-10-05T01:40:08.440Z,100.00
2022-10-05T01:43:14.329Z,100.00
2022-10-05T01:46:19.725Z,100.00
2022-10-05T01:49:24.634Z,100.00
2022-10-05T01:52:06.569Z,100.00
2022-10-05T01:54:47.298Z,100.00
2022-10-05T01:57:38.948Z,100.00
2022-10-05T02:00:09.364Z,100.00
2022-10-05T02:02:49.236Z,100.00
2022-10-05T02:05:24.782Z,100.00
2022-10-05T02:07:57.262Z,100.00
2022-10-05T02:10:32.838Z,100.00
2022-10-05T02:13:15.949Z,100.00
2022-10-05T02:16:09.261Z,100.00
2022-10-05T02:18:43.907Z,100.00
2022-10-05T02:21:11.220Z,100.00
2022-10-05T02:23:41.005Z,100.00
2022-10-05T02:26:11.748Z,100.00
2022-10-05T02:28:45.826Z,100.00
2022-10-05T02:31:16.194Z,100.00
2022-10-05T02:33:43.548Z,100.00
2022-10-05T02:36:11.198Z,100.00
2022-10-05T02:38:44.286Z,100.00
2022-10-05T02:41:30.327Z,100.00
2022-10-05T02:44:09.532Z,100.00
2022-10-05T02:46:53.095Z,100.00
2022-10-05T02:50:06.913Z,100.00
2022-10-05T02:53:07.745Z,100.00
2022-10-05T02:55:41.040Z,100.00
2022-10-05T02:58:21.225Z,100.00
2022-10-05T03:00:59.186Z,100.00
2022-10-05T03:03:39.945Z,100.00
2022-10-05T03:06:18.930Z,100.00
2022-10-05T03:09:05.681Z,100.00
2022-10-05T03:11:41.218Z,100.00
2022-10-05T03:14:14.690Z,100.00
2022-10-05T03:17:10.950Z,100.00
2022-10-05T03:19:55.865Z,100.00
2022-10-05T03:22:48.526Z,100.00
2022-10-05T03:25:34.882Z,100.00
2022-10-05T03:28:18.472Z,100.00
2022-10-05T03:30:55.878Z,100.00
2022-10-05T03:33:57.241Z,100.00
2022-10-05T03:36:37.378Z,100.00
2022-10-05T03:39:11.213Z,100.00
2022-10-05T03:41:48.543Z,100.00
2022-10-05T03:44:24.321Z,100.00
2022-10-05T03:47:36.905Z,100.00
2022-10-05T03:50:13.222Z,100.00
2022-10-05T03:52:51.401Z,100.00
2022-10-05T03:55:21.746Z,100.00
2022-10-05T03:57:50.360Z,100.00
2022-10-05T04:00:20.163Z,100.00
2022-10-05T04:02:51.052Z,100.00
2022-10-05T04:05:28.782Z,100.00
2022-10-05T04:08:28.702Z,100.00
2022-10-05T04:10:58.352Z,100.00
2022-10-05T04:13:29.287Z,100.00
2022-10-05T04:16:02.833Z,100.00
2022-10-05T04:18:49.237Z,100.00
2022-10-05T04:21:24.091Z,100.00
2022-10-05T04:24:06.400Z,100.00
2022-10-05T04:26:49.904Z,100.00
2022-10-05T04:29:37.782Z,100.00
2022-10-05T04:32:25.072Z,100.00
2022-10-05T04:35:11.391Z,100.00
2022-10-05T04:37:51.297Z,100.00
2022-10-05T04:40:24.497Z,100.00
2022-10-05T04:43:23.701Z,100.00
2022-10-05T04:45:56.676Z,100.00
2022-10-05T04:48:48.824Z,100.00
2022-10-05T04:51:34.595Z,100.00
2022-10-05T04:54:13.112Z,100.00
2022-10-05T04:56:53.571Z,100.00
2022-10-05T04:59:29.755Z,100.00
2022-10-05T05:02:39.556Z,100.00
2022-10-05T05:05:15.854Z,100.00
2022-10-05T05:08:06.939Z,100.00
2022-10-05T05:11:16.169Z,100.00
2022-10-05T05:13:57.910Z,100.00
2022-10-05T05:16:36.250Z,100.00
2022-10-05T05:19:04.165Z,100.00
2022-10-05T05:21:39.941Z,100.00
2022-10-05T05:24:31.472Z,100.00
2022-10-05T05:27:03.746Z,100.00
2022-10-05T05:29:37.385Z,100.00
2022-10-05T05:32:17.747Z,100.00
2022-10-05T05:35:05.167Z,100.00
2022-10-05T05:37:36.284Z,100.00
2022-10-05T05:40:26.668Z,100.00
2022-10-05T05:43:00.762Z,100.00
2022-10-05T05:45:28.055Z,100.00
2022-10-05T05:47:59.342Z,100.00
2022-10-05T05:50:45.224Z,100.00
2022-10-05T05:53:27.472Z,100.00
2022-10-05T05:56:00.674Z,100.00
2022-10-05T05:58:39.703Z,100.00
2022-10-05T06:01:32.133Z,100.00
2022-10-05T06:04:15.297Z,100.00
2022-10-05T06:06:46.800Z,100.00
2022-10-05T06:09:23.542Z,100.00
2022-10-05T06:11:57.362Z,100.00
2022-10-05T06:14:29.041Z,100.00
2022-10-05T06:17:24.133Z,100.00
2022-10-05T06:19:53.924Z,100.00
2022-10-05T06:22:29.315Z,100.00
2022-10-05T06:25:12.031Z,100.00
2022-10-05T06:28:00.330Z,100.00
2022-10-05T06:30:49.728Z,100.00
2022-10-05T06:33:43.950Z,100.00
2022-10-05T06:36:39.747Z,100.00
2022-10-05T06:40:00.052Z,100.00
2022-10-05T06:42:36.159Z,100.00
2022-10-05T06:45:18.797Z,100.00
2022-10-05T06:47:53.961Z,100.00
2022-10-05T06:50:37.110Z,100.00
2022-10-05T06:53:22.802Z,100.00
2022-10-05T06:55:56.901Z,100.00
2022-10-05T06:58:46.370Z,100.00
2022-10-05T07:01:25.809Z,100.00
2022-10-05T07:04:37.135Z,100.00
2022-10-05T07:07:07.349Z,100.00
2022-10-05T07:09:53.489Z,100.00
2022-10-05T07:12:26.408Z,100.00
2022-10-05T07:14:59.884Z,100.00
2022-10-05T07:17:50.103Z,100.00
2022-10-05T07:20:26.280Z,100.00
2022-10-05T07:23:20.030Z,100.00
2022-10-05T07:25:47.627Z,100.00
2022-10-05T07:28:58.204Z,100.00
2022-10-05T07:31:35.248Z,100.00
2022-10-05T07:34:07.113Z,100.00
2022-10-05T07:37:18.477Z,100.00
2022-10-05T07:40:08.073Z,100.00
2022-10-05T07:42:51.707Z,100.00
2022-10-05T07:45:22.454Z,100.00
2022-10-05T07:47:58.686Z,100.00
2022-10-05T07:50:34.925Z,100.00
2022-10-05T07:53:06.707Z,100.00
2022-10-05T07:55:54.737Z,100.00
2022-10-05T07:58:37.244Z,100.00
2022-10-05T08:01:14.031Z,100.00
2022-10-05T08:04:01.276Z,100.00
2022-10-05T08:06:43.389Z,100.00
2022-10-05T08:09:52.489Z,100.00
2022-10-05T08:12:32.004Z,100.00
2022-10-05T08:15:15.444Z,100.00
2022-10-05T08:17:49.594Z,100.00
2022-10-05T08:20:50.783Z,100.00
2022-10-05T08:23:17.883Z,100.00
2022-10-05T08:26:22.765Z,100.00
2022-10-05T08:29:16.624Z,100.00
2022-10-05T08:31:47.045Z,100.00
2022-10-05T08:34:23.872Z,100.00
2022-10-05T08:37:03.177Z,100.00
2022-10-05T08:39:34.289Z,100.00
2022-10-05T08:42:23.544Z,98.12
2022-10-05T08:44:53.161Z,98.90
2022-10-05T08:47:50.556Z,97.55
2022-10-05T08:50:36.350Z,97.97
2022-10-05T08:53:28.429Z,99.59
2022-10-05T08:56:07.228Z,100.00
2022-10-05T08:58:40.349Z,100.00
2022-10-05T09:01:30.230Z,100.00
2022-10-05T09:04:22.678Z,100.00
2022-10-05T09:07:22.210Z,100.00
2022-10-05T09:10:18.792Z,100.00
2022-10-05T09:12:56.919Z,99.98
2022-10-05T09:15:35.102Z,100.00
2022-10-05T09:18:23.711Z,98.14
2022-10-05T09:21:09.868Z,98.64
2022-10-05T09:23:42.938Z,97.56
2022-10-05T09:26:41.744Z,99.05
2022-10-05T09:29:38.916Z,98.60
2022-10-05T09:32:18.469Z,97.10
2022-10-05T09:35:22.305Z,94.48
2022-10-05T09:38:13.384Z,91.37
2022-10-05T09:41:14.882Z,95.63
2022-10-05T09:43:57.469Z,84.78
2022-10-05T09:46:52.483Z,88.96
2022-10-05T09:49:38.249Z,88.31
2022-10-05T09:53:04.939Z,88.33
2022-10-05T09:55:47.157Z,89.56
2022-10-05T09:58:33.339Z,84.47
2022-10-05T10:01:34.259Z,86.08
2022-10-05T10:04:21.080Z,87.54
2022-10-05T10:07:25.677Z,82.81
2022-10-05T10:09:59.853Z,82.12
2022-10-05T10:12:32.780Z,85.08
2022-10-05T10:15:23.986Z,87.46
2022-10-05T10:18:09.266Z,90.50
2022-10-05T10:20:45.618Z,84.69
2022-10-05T10:23:27.487Z,86.02
2022-10-05T10:25:57.790Z,87.72
2022-10-05T10:29:02.157Z,86.71
2022-10-05T10:31:29.449Z,86.15
2022-10-05T10:34:14.546Z,86.54
2022-10-05T10:37:12.370Z,85.90
2022-10-05T10:39:47.652Z,88.34
2022-10-05T10:42:49.115Z,87.96
2022-10-05T10:45:28.660Z,85.67
2022-10-05T10:48:19.197Z,85.21
2022-10-05T10:51:23.276Z,86.72
2022-10-05T10:54:20.284Z,85.02
2022-10-05T10:56:52.976Z,81.45
2022-10-05T10:59:57.976Z,81.71
2022-10-05T11:02:37.233Z,79.64
2022-10-05T11:05:23.395Z,77.15
2022-10-05T11:07:57.089Z,79.26
2022-10-05T11:10:33.033Z,76.71
2022-10-05T11:13:38.230Z,76.12
2022-10-05T11:16:30.566Z,76.63
2022-10-05T11:19:30.912Z,77.37
2022-10-05T11:22:44.295Z,75.64
2022-10-05T11:25:48.735Z,75.64
2022-10-05T11:28:15.915Z,70.73
2022-10-05T11:31:06.699Z,68.92
2022-10-05T11:33:58.313Z,68.67
2022-10-05T11:36:34.377Z,69.48
2022-10-05T11:39:18.833Z,68.23
2022-10-05T11:42:00.777Z,68.41
2022-10-05T11:44:50.558Z,66.80
2022-10-05T11:47:26.676Z,68.21
2022-10-05T11:50:17.125Z,66.96
2022-10-05T11:53:13.043Z,68.47
2022-10-05T11:56:09.467Z,63.70
2022-10-05T11:58:44.072Z,65.91
2022-10-05T12:01:40.249Z,65.83
2022-10-05T12:04:33.227Z,66.07
2022-10-05T12:07:43.414Z,65.97
2022-10-05T12:10:37.405Z,62.14
2022-10-05T12:13:14.275Z,60.99
2022-10-05T12:15:48.393Z,60.07
2022-10-05T12:18:24.977Z,59.07
2022-10-05T12:20:56.721Z,57.93
2022-10-05T12:23:42.215Z,59.18
2022-10-05T12:26:15.038Z,60.78
2022-10-05T12:28:47.945Z,59.25
2022-10-05T12:31:52.144Z,57.41
2022-10-05T12:34:25.021Z,60.42
2022-10-05T12:37:03.912Z,62.04
2022-10-05T12:39:59.153Z,61.16
2022-10-05T12:42:32.353Z,61.16
2022-10-05T12:45:20.161Z,61.22
2022-10-05T12:48:05.149Z,58.84
2022-10-05T12:50:44.366Z,61.87
2022-10-05T12:53:32.953Z,59.77
2022-10-05T12:56:38.473Z,59.32
2022-10-05T12:59:08.599Z,59.63
2022-10-05T13:01:46.824Z,60.72
2022-10-05T13:04:31.201Z,60.59
2022-10-05T13:07:16.586Z,60.49
2022-10-05T13:10:19.331Z,59.66
2022-10-05T13:12:53.031Z,58.91
2022-10-05T13:15:27.933Z,58.18
2022-10-05T13:18:04.101Z,60.53
2022-10-05T13:20:46.933Z,59.09
2022-10-05T13:23:25.351Z,58.99
2022-10-05T13:25:55.347Z,59.39
2022-10-05T13:28:30.865Z,60.38
2022-10-05T13:31:05.037Z,58.87
2022-10-05T13:33:53.842Z,60.48
2022-10-05T13:36:33.218Z,60.68
2022-10-05T13:39:21.559Z,60.24
2022-10-05T13:41:59.657Z,62.71
2022-10-05T13:44:46.799Z,61.71
2022-10-05T13:47:32.895Z,61.10
2022-10-05T13:50:07.518Z,60.74
2022-10-05T13:52:42.228Z,60.84
2022-10-05T13:55:35.282Z,61.03
2022-10-05T13:58:06.552Z,62.14
2022-10-05T14:00:41.625Z,62.56
2022-10-05T14:03:27.913Z,63.21
2022-10-05T14:05:59.987Z,63.43
2022-10-05T14:08:29.765Z,63.42
2022-10-05T14:10:56.906Z,63.00
2022-10-05T14:13:29.191Z,62.24
2022-10-05T14:16:13.202Z,63.21
2022-10-05T14:19:06.116Z,64.04
2022-10-05T14:21:46.127Z,62.99
2022-10-05T14:24:45.194Z,63.45
2022-10-05T14:27:27.576Z,63.48
2022-10-05T14:30:08.281Z,63.54
2022-10-05T14:32:56.227Z,62.98
2022-10-05T14:35:30.235Z,65.61
2022-10-05T14:38:00.719Z,65.96
2022-10-05T14:40:33.276Z,66.71
2022-10-05T14:43:15.941Z,66.33
2022-10-05T14:45:57.528Z,69.84
2022-10-05T14:48:29.811Z,71.43
2022-10-05T14:50:59.543Z,73.42
2022-10-05T14:53:39.553Z,75.32
2022-10-05T14:56:17.284Z,75.57
2022-10-05T14:59:00.848Z,75.01
2022-10-05T15:01:32.693Z,75.99
2022-10-05T15:04:10.148Z,76.59
2022-10-05T15:06:47.226Z,77.44
2022-10-05T15:09:26.395Z,77.69
2022-10-05T15:11:58.685Z,76.97
2022-10-05T15:14:36.929Z,76.34
2022-10-05T15:17:13.905Z,77.74
2022-10-05T15:20:02.207Z,80.00
2022-10-05T15:22:34.288Z,79.25
2022-10-05T15:25:31.298Z,81.65
2022-10-05T15:28:17.932Z,83.29
2022-10-05T15:31:01.838Z,84.96
2022-10-05T15:33:34.458Z,84.58
2022-10-05T15:36:26.426Z,85.55
2022-10-05T15:39:12.305Z,86.15
2022-10-05T15:41:47.615Z,84.65
2022-10-05T15:44:20.661Z,82.71
2022-10-05T15:46:56.466Z,85.58
2022-10-05T15:49:50.860Z,85.15
2022-10-05T15:52:26.114Z,87.02
2022-10-05T15:55:11.391Z,87.31
2022-10-05T15:58:09.557Z,88.04
2022-10-05T16:00:47.736Z,86.31
2022-10-05T16:03:40.369Z,87.55
2022-10-05T16:06:32.742Z,88.03
2022-10-05T16:09:38.544Z,87.29
2022-10-05T16:12:09.717Z,89.57
2022-10-05T16:14:55.961Z,88.60
2022-10-05T16:17:33.921Z,88.94
2022-10-05T16:20:23.113Z,89.08
2022-10-05T16:23:02.578Z,89.79
2022-10-05T16:25:39.995Z,89.40
2022-10-05T16:28:16.324Z,89.31
2022-10-05T16:30:51.671Z,89.79
2022-10-05T16:33:27.033Z,90.18
2022-10-05T16:36:12.326Z,90.09
2022-10-05T16:39:03.729Z,90.61
2022-10-05T16:41:39.264Z,89.84
2022-10-05T16:44:27.779Z,89.95
2022-10-05T16:47:27.425Z,90.69
2022-10-05T16:50:16.087Z,91.30
2022-10-05T16:52:46.026Z,91.14
2022-10-05T16:55:19.152Z,92.96
2022-10-05T16:57:55.563Z,93.77
2022-10-05T17:00:56.296Z,94.33
2022-10-05T17:04:08.814Z,94.95
2022-10-05T17:07:04.890Z,94.98
2022-10-05T17:09:47.279Z,95.84
2022-10-05T17:12:27.560Z,95.04
2022-10-05T17:15:06.372Z,95.67
2022-10-05T17:17:33.293Z,94.82
2022-10-05T17:20:29.370Z,95.69
2022-10-05T17:23:21.407Z,96.48
2022-10-05T17:26:21.381Z,96.38
2022-10-05T17:28:51.347Z,96.75
2022-10-05T17:31:28.006Z,96.95
2022-10-05T17:34:24.868Z,96.84
2022-10-05T17:37:38.023Z,97.77
2022-10-05T17:40:32.513Z,98.05
2022-10-05T17:43:01.353Z,98.63
2022-10-05T17:45:34.249Z,99.10
2022-10-05T17:48:06.116Z,99.24
2022-10-05T17:51:04.207Z,98.73
2022-10-05T17:54:02.372Z,98.73
2022-10-05T17:56:31.337Z,100.00
2022-10-05T17:59:04.239Z,99.83
2022-10-05T18:01:41.462Z,99.73
2022-10-05T18:04:11.557Z,100.00
2022-10-05T18:06:57.137Z,99.89
2022-10-05T18:09:25.960Z,100.00
2022-10-05T18:12:08.842Z,100.00
2022-10-05T18:15:14.074Z,100.00
2022-10-05T18:17:45.504Z,100.00
2022-10-05T18:20:19.124Z,100.00
2022-10-05T18:22:46.793Z,100.00
2022-10-05T18:25:27.181Z,100.00
2022-10-05T18:28:12.667Z,100.00
2022-10-05T18:30:59.167Z,100.00
2022-10-05T18:33:41.365Z,100.00
2022-10-05T18:36:27.430Z,100.00
2022-10-05T18:38:59.821Z,100.00
2022-10-05T18:41:43.044Z,100.00
2022-10-05T18:44:16.084Z,100.00
2022-10-05T18:47:20.863Z,100.00
2022-10-05T18:50:00.586Z,100.00
2022-10-05T18:52:36.283Z,100.00
2022-10-05T18:55:03.392Z,100.00
2022-10-05T18:57:40.023Z,100.00
2022-10-05T19:00:10.001Z,100.00
2022-10-05T19:02:44.924Z,100.00
2022-10-05T19:05:56.613Z,100.00
2022-10-05T19:08:59.137Z,100.00
2022-10-05T19:11:59.292Z,100.00
2022-10-05T19:14:45.283Z,100.00
2022-10-05T19:17:28.579Z,100.00
2022-10-05T19:20:09.332Z,100.00
2022-10-05T19:22:53.994Z,100.00
2022-10-05T19:25:25.984Z,100.00
2022-10-05T19:28:20.601Z,100.00
2022-10-05T19:31:09.785Z,100.00
2022-10-05T19:33:58.395Z,100.00
2022-10-05T19:36:32.515Z,100.00
2022-10-05T19:39:40.603Z,100.00
2022-10-05T19:42:28.721Z,100.00
2022-10-05T19:45:23.138Z,100.00
2022-10-05T19:48:08.751Z,100.00
2022-10-05T19:50:38.441Z,100.00
2022-10-05T19:53:19.767Z,100.00
2022-10-05T19:55:47.162Z,100.00
2022-10-05T19:58:25.968Z,100.00
2022-10-05T20:01:00.970Z,100.00
2022-10-05T20:03:30.303Z,100.00
2022-10-05T20:06:01.957Z,100.00
2022-10-05T20:08:39.409Z,100.00
2022-10-05T20:11:15.240Z,100.00
2022-10-05T20:14:06.720Z,100.00
2022-10-05T20:16:53.902Z,100.00
2022-10-05T20:19:36.237Z,100.00
2022-10-05T20:22:26.368Z,100.00
2022-10-05T20:25:18.105Z,100.00
2022-10-05T20:28:03.316Z,100.00
2022-10-05T20:30:48.994Z,100.00
2022-10-05T20:33:34.512Z,100.00
2022-10-05T20:36:20.366Z,100.00
2022-10-05T20:39:05.720Z,100.00
2022-10-05T20:41:51.740Z,100.00
2022-10-05T20:44:37.886Z,100.00
2022-10-05T20:47:24.285Z,100.00
2022-10-05T20:49:53.410Z,100.00
2022-10-05T20:52:21.428Z,100.00
2022-10-05T20:54:55.824Z,100.00
2022-10-05T20:57:24.237Z,100.00
2022-10-05T20:59:51.517Z,100.00
2022-10-05T21:02:19.549Z,100.00
2022-10-05T21:04:47.761Z,100.00
2022-10-05T21:07:16.303Z,100.00
2022-10-05T21:09:44.672Z,100.00
2022-10-05T21:12:12.542Z,100.00
2022-10-05T21:14:40.568Z,100.00
2022-10-05T21:17:07.755Z,100.00
2022-10-05T21:19:44.255Z,100.00
2022-10-05T21:22:11.941Z,100.00
2022-10-05T21:24:40.793Z,100.00
2022-10-05T21:27:08.344Z,100.00
2022-10-05T21:29:36.452Z,100.00
2022-10-05T21:32:08.574Z,100.00
2022-10-05T21:34:35.798Z,100.00
2022-10-05T21:37:02.803Z,100.00
2022-10-05T21:39:30.357Z,100.00
2022-10-05T21:41:57.370Z,100.00
2022-10-05T21:44:24.329Z,100.00
2022-10-05T21:46:51.910Z,100.00
2022-10-05T21:49:19.856Z,100.00
2022-10-05T21:51:47.568Z,100.00
2022-10-05T21:54:18.597Z,100.00
2022-10-05T21:56:49.456Z,100.00
2022-10-05T21:59:19.233Z,100.00
2022-10-05T22:01:46.330Z,100.00
2022-10-05T22:04:15.022Z,100.00
2022-10-05T22:06:42.118Z,100.00
2022-10-05T22:09:09.460Z,100.00
2022-10-05T22:11:36.775Z,100.00
2022-10-05T22:14:04.124Z,100.00
2022-10-05T22:16:33.731Z,100.00
2022-10-05T22:19:05.929Z,100.00
2022-10-05T22:21:37.850Z,100.00
2022-10-05T22:24:05.539Z,100.00
2022-10-05T22:26:32.881Z,100.00
2022-10-05T22:29:01.713Z,100.00
2022-10-05T22:31:29.132Z,100.00
2022-10-05T22:33:56.161Z,100.00
2022-10-05T22:36:23.218Z,100.00
2022-10-05T22:38:50.554Z,100.00
2022-10-05T22:41:20.527Z,100.00
2022-10-05T22:43:50.105Z,100.00
2022-10-05T22:46:18.342Z,100.00
2022-10-05T22:48:45.507Z,100.00
2022-10-05T22:51:12.657Z,100.00
2022-10-05T22:53:39.949Z,100.00
2022-10-05T23:00:08.300Z,100.00
2022-10-05T23:02:40.170Z,100.00
2022-10-05T23:05:08.261Z,100.00
2022-10-05T23:07:39.928Z,100.00
2022-10-05T23:10:08.209Z,100.00
2022-10-05T23:12:35.478Z,100.00
2022-10-05T23:15:02.640Z,100.00
2022-10-05T23:17:30.390Z,100.00
2022-10-05T23:19:57.941Z,100.00
2022-10-05T23:22:25.382Z,100.00
2022-10-05T23:24:52.493Z,100.00
2022-10-05T23:27:20.109Z,100.00
2022-10-05T23:29:47.150Z,100.00
2022-10-05T23:32:14.199Z,100.00
2022-10-05T23:34:41.496Z,100.00
2022-10-05T23:37:08.563Z,100.00
2022-10-05T23:39:35.528Z,100.00
2022-10-05T23:42:02.833Z,100.00
2022-10-05T23:44:29.872Z,100.00
2022-10-05T23:46:56.869Z,100.00
2022-10-05T23:49:24.145Z,100.00
2022-10-05T23:51:51.124Z,100.00
2022-10-05T23:54:18.126Z,100.00
2022-10-05T23:56:45.422Z,100.00
2022-10-05T23:59:12.399Z,100.00
